createdAt,value
2023-01-25T00:00:42.418Z,10.50
2023-01-25T00:05:45.426Z,11.25
2023-01-25T00:10:52.323Z,9.75
2023-01-25T00:16:02.472Z,11.50
2023-01-25T00:21:13.433Z,10.25
2023-01-25T00:26:16.488Z,10.25
2023-01-25T00:31:28.240Z,9.00
2023-01-25T00:36:40.680Z,12.25
2023-01-25T00:41:44.470Z,12.50
2023-01-25T00:46:48.756Z,9.75
2023-01-25T00:51:51.882Z,12.25
2023-01-25T00:56:56.537Z,11.00
2023-01-25T01:02:01.311Z,10.50
2023-01-25T01:07:05.153Z,12.00
2023-01-25T01:12:08.094Z,10.00
2023-01-25T01:17:12.253Z,8.25
2023-01-25T01:22:15.913Z,10.25
2023-01-25T01:27:18.999Z,10.25
2023-01-25T01:32:23.259Z,11.25
2023-01-25T01:37:27.586Z,9.50
2023-01-25T01:42:30.832Z,11.25
2023-01-25T01:47:45.818Z,10.25
2023-01-25T01:52:51.482Z,9.50
2023-01-25T01:57:59.019Z,8.75
2023-01-25T02:03:03.618Z,10.75
2023-01-25T02:08:10.376Z,8.00
2023-01-25T02:13:13.395Z,11.50
2023-01-25T02:18:18.997Z,10.00
2023-01-25T02:23:30.538Z,11.00
2023-01-25T02:28:39.525Z,10.75
2023-01-25T02:33:42.316Z,8.00
2023-01-25T02:38:51.240Z,8.75
2023-01-25T02:43:55.494Z,8.25
2023-01-25T02:48:59.704Z,9.00
2023-01-25T02:54:06.642Z,9.00
2023-01-25T02:59:13.468Z,9.00
2023-01-25T03:04:19.930Z,7.50
2023-01-25T03:09:23.975Z,8.75
2023-01-25T03:14:28.484Z,7.75
2023-01-25T03:19:31.344Z,9.75
2023-01-25T03:24:34.425Z,8.00
2023-01-25T03:29:40.674Z,7.75
2023-01-25T03:34:48.139Z,9.50
2023-01-25T03:39:52.036Z,9.00
2023-01-25T03:44:57.875Z,7.00
2023-01-25T03:50:00.720Z,9.00
2023-01-25T03:55:03.715Z,8.00
2023-01-25T04:00:12.838Z,9.25
2023-01-25T04:05:21.090Z,6.25
2023-01-25T04:10:24.137Z,9.00
2023-01-25T04:15:28.460Z,9.00
2023-01-25T04:20:36.631Z,7.75
2023-01-25T04:25:39.953Z,8.25
2023-01-25T04:30:49.474Z,6.75
2023-01-25T04:35:53.717Z,8.50
2023-01-25T04:40:56.605Z,8.00
2023-01-25T04:46:02.360Z,8.50
2023-01-25T04:51:09.412Z,9.50
2023-01-25T04:56:12.373Z,6.75
2023-01-25T05:01:28.188Z,7.00
2023-01-25T05:06:31.279Z,7.50
2023-01-25T05:11:34.182Z,8.00
2023-01-25T05:16:54.188Z,7.50
2023-01-25T05:22:01.184Z,6.50
2023-01-25T05:27:10.194Z,5.50
2023-01-25T05:32:37.517Z,8.00
2023-01-25T05:37:40.463Z,7.25
2023-01-25T05:42:54.912Z,8.00
2023-01-25T05:48:00.934Z,7.25
2023-01-25T05:53:03.778Z,6.75
2023-01-25T05:58:06.651Z,7.50
2023-01-25T06:03:11.104Z,7.25
2023-01-25T06:08:15.578Z,8.00
2023-01-25T06:13:26.834Z,6.00
2023-01-25T06:18:32.514Z,6.75
2023-01-25T06:23:55.608Z,6.00
2023-01-25T06:28:58.595Z,7.00
2023-01-25T06:34:06.169Z,7.75
2023-01-25T06:39:09.187Z,4.50
2023-01-25T06:44:12.167Z,8.00
2023-01-25T06:49:16.378Z,6.00
2023-01-25T06:54:19.411Z,6.25
2023-01-25T06:59:22.239Z,7.00
2023-01-25T07:04:26.331Z,6.00
2023-01-25T07:09:29.094Z,5.75
2023-01-25T07:14:32.155Z,8.25
2023-01-25T07:19:36.344Z,5.25
2023-01-25T07:24:39.164Z,7.00
2023-01-25T07:29:41.951Z,7.00
2023-01-25T07:34:46.215Z,6.00
2023-01-25T07:39:50.584Z,8.25
2023-01-25T07:44:53.411Z,8.00
2023-01-25T07:49:57.567Z,6.00
2023-01-25T07:55:00.371Z,3.75
2023-01-25T08:00:04.079Z,5.00
2023-01-25T08:05:16.532Z,6.50
2023-01-25T08:10:19.587Z,6.50
2023-01-25T08:15:22.740Z,6.00
2023-01-25T08:20:26.995Z,5.00
2023-01-25T08:25:29.747Z,6.00
2023-01-25T08:30:32.621Z,6.50
2023-01-25T08:35:37.220Z,5.25
2023-01-25T08:40:40.077Z,4.50
2023-01-25T08:45:42.822Z,6.00
2023-01-25T08:50:49.997Z,6.50
2023-01-25T08:55:52.774Z,6.00
2023-01-25T09:00:55.641Z,6.00
2023-01-25T09:06:00.145Z,6.00
2023-01-25T09:11:03.619Z,4.50
2023-01-25T09:16:09.885Z,5.25
2023-01-25T09:21:16.087Z,4.75
2023-01-25T09:26:19.595Z,6.50
2023-01-25T09:31:24.111Z,18.25
2023-01-25T09:36:54.601Z,18.25
2023-01-25T09:42:15.488Z,19.00
2023-01-25T09:47:30.735Z,16.75
2023-01-25T09:52:58.107Z,13.25
2023-01-25T09:58:04.116Z,11.50
2023-01-25T10:03:16.727Z,12.00
2023-01-25T10:08:29.187Z,12.75
2023-01-25T10:13:32.071Z,10.50
2023-01-25T10:18:41.894Z,12.50
2023-01-25T10:24:04.695Z,11.75
2023-01-25T10:29:13.907Z,9.00
2023-01-25T10:34:20.265Z,10.00
2023-01-25T10:39:24.867Z,9.50
2023-01-25T10:44:29.353Z,9.75
2023-01-25T10:49:41.057Z,9.50
2023-01-25T10:54:46.131Z,9.50
2023-01-25T10:59:52.423Z,8.50
2023-01-25T11:04:55.271Z,7.75
2023-01-25T11:09:59.722Z,7.25
2023-01-25T11:15:26.296Z,8.75
2023-01-25T11:20:29.145Z,7.00
2023-01-25T11:25:34.919Z,8.25
2023-01-25T11:30:37.757Z,7.75
2023-01-25T11:35:51.085Z,9.25
2023-01-25T11:41:02.525Z,7.50
2023-01-25T11:46:18.079Z,6.25
2023-01-25T11:51:27.485Z,6.25
2023-01-25T11:56:48.594Z,6.00
2023-01-25T12:02:08.463Z,7.00
2023-01-25T12:07:21.521Z,7.75
2023-01-25T12:12:38.039Z,10.00
2023-01-25T12:17:57.073Z,9.25
2023-01-25T12:23:32.403Z,8.50
2023-01-25T12:28:44.168Z,7.50
2023-01-25T12:33:52.091Z,7.00
2023-01-25T12:39:00.378Z,8.00
2023-01-25T12:44:12.528Z,6.75
2023-01-25T12:49:22.313Z,6.50
2023-01-25T12:54:32.348Z,7.75
2023-01-25T12:59:47.638Z,9.25
2023-01-25T13:05:00.932Z,7.50
2023-01-25T13:10:14.882Z,6.50
2023-01-25T13:15:38.283Z,5.25
2023-01-25T13:20:53.075Z,19.25
2023-01-25T13:26:37.677Z,32.80
2023-01-25T13:31:52.700Z,23.25
2023-01-25T13:36:57.305Z,19.25
2023-01-25T13:42:00.840Z,21.75
2023-01-25T13:47:08.533Z,24.75
2023-01-25T13:52:17.172Z,21.75
2023-01-25T13:57:23.281Z,23.50
2023-01-25T14:02:28.948Z,22.25
2023-01-25T14:07:34.724Z,26.25
2023-01-25T14:12:40.231Z,28.00
2023-01-25T14:17:44.853Z,23.50
2023-01-25T14:22:51.707Z,24.00
2023-01-25T14:27:56.761Z,26.50
2023-01-25T14:33:03.317Z,19.75
2023-01-25T14:38:22.524Z,22.50
2023-01-25T14:43:27.594Z,20.75
2023-01-25T14:48:40.473Z,24.00
2023-01-25T14:53:47.676Z,18.75
2023-01-25T14:58:58.970Z,19.00
2023-01-25T15:04:04.440Z,20.00
2023-01-25T15:09:27.361Z,23.50
2023-01-25T15:14:30.626Z,19.75
2023-01-25T15:19:35.295Z,18.25
2023-01-25T15:24:40.561Z,20.25
2023-01-25T15:29:45.151Z,21.50
2023-01-25T15:34:49.775Z,18.75
2023-01-25T15:39:53.707Z,19.50
2023-01-25T15:44:56.773Z,21.50
2023-01-25T15:50:00.933Z,19.50
2023-01-25T15:55:03.840Z,20.25
2023-01-25T16:00:08.215Z,20.00
2023-01-25T16:05:12.950Z,18.75
2023-01-25T16:10:24.057Z,21.50
2023-01-25T16:15:27.107Z,17.50
2023-01-25T16:20:31.788Z,19.00
2023-01-25T16:25:34.551Z,16.25
2023-01-25T16:30:37.462Z,16.50
2023-01-25T16:35:41.722Z,16.00
2023-01-25T16:40:44.666Z,20.00
2023-01-25T16:45:47.590Z,17.25
2023-01-25T16:50:53.150Z,18.00
2023-01-25T16:55:55.928Z,15.50
2023-01-25T17:00:58.795Z,18.00
2023-01-25T17:06:02.981Z,19.50
2023-01-25T17:11:07.474Z,18.00
2023-01-25T17:16:10.293Z,23.00
2023-01-25T17:21:16.797Z,22.00
2023-01-25T17:26:21.319Z,20.25
2023-01-25T17:31:27.489Z,20.25
2023-01-25T17:36:31.951Z,18.75
2023-01-25T17:41:35.043Z,20.00
2023-01-25T17:46:38.385Z,19.00
2023-01-25T17:51:42.626Z,17.00
2023-01-25T17:56:45.471Z,16.75
2023-01-25T18:01:48.336Z,18.00
2023-01-25T18:06:52.514Z,16.75
2023-01-25T18:11:55.225Z,18.00
2023-01-25T18:16:58.151Z,19.25
2023-01-25T18:22:02.246Z,16.00
2023-01-25T18:27:07.847Z,15.50
2023-01-25T18:32:10.620Z,15.00
2023-01-25T18:37:21.703Z,15.25
2023-01-25T18:42:26.234Z,19.00
2023-01-25T18:47:29.111Z,18.25
2023-01-25T18:52:33.203Z,16.00
2023-01-25T18:57:35.974Z,16.00
2023-01-25T19:02:38.842Z,15.50
2023-01-25T19:07:42.940Z,14.50
2023-01-25T19:12:45.726Z,14.75
2023-01-25T19:17:48.453Z,15.50
2023-01-25T19:22:54.451Z,14.00
2023-01-25T19:27:57.281Z,15.00
2023-01-25T19:33:00.171Z,15.50
2023-01-25T19:38:04.483Z,16.00
2023-01-25T19:43:07.344Z,15.25
2023-01-25T19:48:10.113Z,15.25
2023-01-25T19:53:14.393Z,14.75
2023-01-25T19:58:17.223Z,14.50
2023-01-25T20:03:20.016Z,14.00
2023-01-25T20:08:24.180Z,14.00
2023-01-25T20:13:27.207Z,14.75
2023-01-25T20:18:32.212Z,13.75
2023-01-25T20:23:38.696Z,14.25
2023-01-25T20:28:42.809Z,13.75
2023-01-25T20:33:45.759Z,13.75
2023-01-25T20:38:50.168Z,12.00
2023-01-25T20:43:57.056Z,12.50
2023-01-25T20:48:59.800Z,12.25
2023-01-25T20:54:04.098Z,14.50
2023-01-25T20:59:06.967Z,13.25
2023-01-25T21:04:11.405Z,13.00
2023-01-25T21:09:15.678Z,9.00
2023-01-25T21:14:19.426Z,11.00
2023-01-25T21:19:22.179Z,9.75
2023-01-25T21:24:26.357Z,12.00
2023-01-25T21:29:29.294Z,12.75
2023-01-25T21:34:33.515Z,11.00
2023-01-25T21:39:37.747Z,12.25
2023-01-25T21:44:58.104Z,11.50
2023-01-25T21:50:18.181Z,12.00
2023-01-25T21:55:22.518Z,9.75
2023-01-25T22:00:25.256Z,11.25
2023-01-25T22:05:28.068Z,12.75
2023-01-25T22:10:32.245Z,11.50
2023-01-25T22:15:35.030Z,10.25
2023-01-25T22:20:37.871Z,10.75
2023-01-25T22:25:41.993Z,12.25
2023-01-25T22:30:44.841Z,9.75
2023-01-25T22:35:47.690Z,10.50
2023-01-25T22:40:51.836Z,11.75
2023-01-25T22:45:54.723Z,11.00
2023-01-25T22:51:02.027Z,10.75
2023-01-25T22:56:08.596Z,9.00
2023-01-25T23:01:12.603Z,9.25
2023-01-25T23:06:18.413Z,11.75
2023-01-25T23:11:24.476Z,10.00
2023-01-25T23:16:27.309Z,10.50
2023-01-25T23:21:30.720Z,9.25
2023-01-25T23:26:38.996Z,10.75
2023-01-25T23:31:41.938Z,8.00
2023-01-25T23:36:44.916Z,9.75
2023-01-25T23:41:51.459Z,9.25
2023-01-25T23:46:54.279Z,8.25
2023-01-25T23:51:57.056Z,10.00
2023-01-25T23:57:01.222Z,9.00
